.
WxDataArchive / Data Records for 2011-08-03
2011-08-02 August 2011 2011-08-04

Data Records for Wednesday, 03 August 2011

Time	Temp	Chill	HIndex	Humid	Dewpt	 Wind 	HiWind	WindDir	Rain 	Barom 
-----	----	-----	------	-----	-----	------	------	-------	-----	----- 
00:00	81.2	81.2	84.0	64	67.8	0	1	270	0.00	29.683 
00:05	81.1	81.1	83.8	64	67.7	0	1	270	0.00	29.683 
00:10	81.1	81.1	83.8	64	67.7	0	1	270	0.00	29.683 
00:15	80.9	80.9	83.5	64	67.6	0	1	270	0.00	29.685 
00:20	80.9	80.9	83.5	64	67.6	0	0	---	0.00	29.685 
00:25	80.9	80.9	83.4	63	67.1	0	3	270	0.00	29.685 
00:30	81.1	81.1	83.5	62	66.8	0	3	270	0.00	29.684 
00:35	81.2	81.2	83.6	62	66.9	1	5	270	0.00	29.684 
00:40	81.4	81.4	83.8	61	66.6	1	4	90	0.00	29.684 
00:45	81.4	81.4	83.8	61	66.6	0	1	90	0.00	29.680 
00:50	81.4	81.4	83.8	61	66.6	0	4	292	0.00	29.680 
00:55	81.6	81.6	84.2	62	67.3	0	2	292	0.00	29.680 
01:00	81.4	81.4	84.1	63	67.6	0	0	---	0.00	29.680 
01:05	81.2	81.2	83.8	63	67.4	0	0	---	0.00	29.680 
01:10	81.1	81.1	83.8	64	67.7	0	0	---	0.00	29.680 
01:15	80.9	80.9	83.5	64	67.6	0	0	---	0.00	29.677 
01:20	80.7	80.7	83.2	64	67.4	0	0	---	0.00	29.677 
01:25	80.5	80.5	83.1	65	67.6	0	0	---	0.00	29.677 
01:30	80.3	80.3	82.9	66	67.9	0	0	---	0.00	29.662 
01:35	80.3	80.3	83.2	68	68.8	0	0	---	0.00	29.662 
01:40	79.9	79.9	82.7	69	68.8	0	0	---	0.00	29.662 
01:45	79.8	79.8	82.5	69	68.7	0	1	292	0.00	29.658 
01:50	79.4	79.4	81.9	69	68.3	0	1	338	0.00	29.658 
01:55	79.2	79.2	81.7	70	68.5	0	2	338	0.00	29.658 
02:00	79.0	79.0	81.6	73	69.6	0	2	338	0.01	29.653 
02:05	78.3	78.3	80.7	77	70.5	1	3	0	0.06	29.653 
02:10	77.0	77.0	78.5	82	71.1	2	10	0	0.07	29.653 
02:15	75.8	75.8	76.2	85	71.0	3	10	270	0.03	29.703 
02:20	75.3	75.3	75.1	87	71.2	0	1	270	0.06	29.703 
02:25	75.1	75.1	74.6	88	71.3	0	4	270	0.01	29.703 
02:30	74.7	74.7	74.7	89	71.2	1	3	248	0.00	29.706 
02:35	74.6	74.6	74.6	90	71.5	0	3	248	0.01	29.706 
02:40	74.2	74.2	74.2	91	71.4	0	5	180	0.01	29.706 
02:45	73.7	73.7	73.7	91	70.9	1	5	270	0.00	29.694 
02:50	73.2	73.2	73.2	91	70.4	0	3	270	0.01	29.694 
02:55	73.0	73.0	73.0	92	70.5	0	1	270	0.00	29.694 
03:00	72.7	72.7	72.7	92	70.2	0	2	270	0.01	29.682 
03:05	72.5	72.5	72.5	92	70.0	0	1	270	0.01	29.682 
03:10	72.3	72.3	72.3	92	69.8	0	1	270	0.01	29.682 
03:15	72.3	72.3	72.3	93	70.2	0	1	270	0.01	29.664 
03:20	72.1	72.1	72.1	93	70.0	0	0	---	0.00	29.664 
03:25	72.1	72.1	72.1	93	70.0	0	1	270	0.01	29.664 
03:30	72.0	72.0	72.0	93	69.9	0	1	270	0.00	29.651 
03:35	71.8	71.8	71.8	93	69.7	0	1	270	0.01	29.651 
03:40	71.8	71.8	71.8	93	69.7	0	1	270	0.00	29.651 
03:45	71.8	71.8	71.8	94	70.0	0	2	270	0.00	29.635 
03:50	71.8	71.8	71.8	94	70.0	0	1	270	0.00	29.635 
03:55	72.0	72.0	72.0	94	70.2	0	2	270	0.00	29.635 
04:00	72.1	72.1	72.1	94	70.3	0	1	270	0.00	29.618 
04:05	72.1	72.1	72.1	94	70.3	0	3	270	0.00	29.618 
04:10	72.1	72.1	72.1	94	70.3	0	1	270	0.00	29.618 
04:15	72.0	72.0	72.0	94	70.2	0	2	315	0.00	29.617 
04:20	72.0	72.0	72.0	94	70.2	0	2	315	0.00	29.617 
04:25	72.0	72.0	72.0	94	70.2	0	2	315	0.00	29.617 
04:30	72.1	72.1	72.1	95	70.6	0	1	315	0.00	29.627 
04:35	72.1	72.1	72.1	95	70.6	0	1	315	0.00	29.627 
04:40	72.1	72.1	72.1	95	70.6	0	2	315	0.00	29.627 
04:45	72.1	72.1	72.1	95	70.6	0	2	315	0.00	29.636 
04:50	72.3	72.3	72.3	95	70.8	0	2	315	0.00	29.636 
04:55	72.3	72.3	72.3	95	70.8	1	2	315	0.00	29.636 
05:00	72.1	72.1	72.1	95	70.6	0	1	315	0.00	29.639 
05:05	72.1	72.1	72.1	95	70.6	0	1	315	0.00	29.639 
05:10	72.1	72.1	72.1	95	70.6	0	2	315	0.00	29.639 
05:15	72.1	72.1	72.1	95	70.6	0	2	315	0.00	29.641 
05:20	72.1	72.1	72.1	95	70.6	0	2	315	0.00	29.641 
05:25	72.1	72.1	72.1	95	70.6	1	3	315	0.00	29.641 
05:30	72.1	72.1	72.1	95	70.6	0	2	315	0.00	29.639 
05:35	72.1	72.1	72.1	95	70.6	1	2	315	0.00	29.639 
05:40	72.1	72.1	72.1	95	70.6	1	2	315	0.00	29.639 
05:45	72.1	72.1	72.1	95	70.6	1	3	315	0.00	29.638 
05:50	72.1	72.1	72.1	95	70.6	0	2	315	0.00	29.638 
05:55	72.1	72.1	72.1	95	70.6	0	2	315	0.00	29.638 
06:00	72.1	72.1	72.1	95	70.6	1	2	315	0.00	29.637 
06:05	72.3	72.3	72.3	94	70.5	1	2	315	0.00	29.637 
06:10	72.3	72.3	72.3	94	70.5	1	3	315	0.00	29.637 
06:15	72.3	72.3	72.3	94	70.5	0	2	315	0.00	29.638 
06:20	72.3	72.3	72.3	94	70.5	1	2	315	0.00	29.638 
06:25	72.3	72.3	72.3	94	70.5	1	3	315	0.00	29.638 
06:30	72.5	72.5	72.5	94	70.7	1	2	315	0.00	29.647 
06:35	72.5	72.5	72.5	94	70.7	0	2	315	0.00	29.647 
06:40	72.7	72.7	72.7	93	70.6	1	3	315	0.00	29.647 
06:45	72.7	72.7	72.7	93	70.6	1	3	315	0.00	29.649 
06:50	72.7	72.7	72.7	93	70.6	1	3	315	0.00	29.649 
06:55	72.8	72.8	72.8	93	70.7	1	3	315	0.00	29.649 
07:00	72.8	72.8	72.8	93	70.7	1	3	270	0.00	29.650 
07:05	73.0	73.0	73.0	93	70.8	1	2	270	0.00	29.650 
07:10	73.0	73.0	73.0	93	70.8	0	2	270	0.00	29.650 
07:15	73.0	73.0	73.0	93	70.8	1	3	270	0.00	29.650 
07:20	73.2	73.2	73.2	93	71.0	1	3	270	0.00	29.650 
07:25	73.2	73.2	73.2	93	71.0	0	2	270	0.00	29.650 
07:30	73.3	73.3	73.3	93	71.1	1	2	270	0.00	29.653 
07:35	73.5	73.5	73.5	93	71.3	1	3	270	0.00	29.653 
07:40	73.7	73.7	73.7	93	71.5	1	3	270	0.00	29.653 
07:45	73.7	73.7	73.7	93	71.5	1	2	270	0.00	29.646 
07:50	73.9	73.9	73.9	93	71.7	1	3	270	0.00	29.646 
07:55	74.0	74.0	74.0	92	71.5	1	3	292	0.00	29.646 
08:00	74.2	74.2	74.2	92	71.7	2	4	292	0.00	29.638 
08:05	74.4	74.4	74.4	92	71.9	1	3	270	0.00	29.638 
08:10	74.4	74.4	74.4	91	71.6	2	4	270	0.00	29.638 
08:15	74.6	74.6	74.6	91	71.8	1	4	292	0.00	29.639 
08:20	74.7	74.7	74.7	90	71.6	1	3	292	0.00	29.639 
08:25	74.9	74.9	74.9	90	71.8	2	4	292	0.00	29.639 
08:30	75.1	75.1	74.3	90	72.0	1	4	292	0.00	29.644 
08:35	75.1	75.1	74.4	89	71.6	2	5	292	0.00	29.644 
08:40	75.3	75.3	74.8	89	71.8	1	4	292	0.00	29.644 
08:45	75.4	75.4	75.0	89	71.9	1	4	292	0.00	29.650 
08:50	75.4	75.4	75.0	89	71.9	1	5	292	0.00	29.650 
08:55	75.4	75.4	75.1	88	71.6	2	4	292	0.00	29.650 
09:00	75.4	75.4	75.1	88	71.6	2	6	270	0.00	29.651 
09:05	75.4	75.4	75.1	88	71.6	2	6	292	0.00	29.651 
09:10	75.4	75.4	75.1	88	71.6	1	3	292	0.00	29.651 
09:15	75.6	75.6	75.5	88	71.8	1	4	292	0.00	29.654 
09:20	75.6	75.6	75.5	88	71.8	1	3	292	0.00	29.654 
09:25	75.8	75.8	75.9	88	72.0	2	5	292	0.00	29.654 
09:30	75.8	75.8	75.9	88	72.0	3	5	270	0.00	29.659 
09:35	76.1	76.1	76.5	88	72.3	1	3	292	0.00	29.659 
09:40	76.5	76.5	77.3	87	72.3	1	3	315	0.00	29.659 
09:45	76.7	76.7	77.7	87	72.5	2	4	315	0.00	29.665 
09:50	76.8	76.8	78.0	86	72.3	1	4	270	0.00	29.665 
09:55	77.0	77.0	78.4	85	72.1	1	3	270	0.00	29.665 
10:00	77.4	77.4	79.2	85	72.5	0	2	315	0.00	29.674 
10:05	77.6	77.6	79.6	84	72.4	1	4	315	0.00	29.674 
10:10	77.7	77.7	79.8	84	72.5	1	3	270	0.00	29.674 
10:15	77.9	77.9	80.2	84	72.7	0	3	270	0.00	29.673 
10:20	78.1	78.1	80.6	83	72.5	1	2	315	0.00	29.673 
10:25	78.3	78.3	81.0	83	72.7	0	2	315	0.00	29.673 
10:30	78.5	78.5	81.4	83	72.9	0	2	315	0.00	29.676 
10:35	78.5	78.5	81.3	82	72.5	2	4	315	0.00	29.676 
10:40	78.5	78.5	81.3	82	72.5	1	3	270	0.00	29.676 
10:45	78.5	78.5	81.3	82	72.5	0	2	270	0.00	29.680 
10:50	78.5	78.5	81.3	82	72.5	0	2	315	0.00	29.680 
10:55	78.5	78.5	81.3	82	72.5	1	3	315	0.00	29.680 
11:00	78.5	78.5	81.3	82	72.5	2	4	315	0.00	29.681 
11:05	78.5	78.5	81.3	82	72.5	1	5	292	0.00	29.681 
11:10	78.6	78.6	81.5	82	72.6	1	3	292	0.00	29.681 
11:15	79.0	79.0	82.3	82	73.0	1	3	315	0.00	29.682 
11:20	79.8	79.8	83.8	80	73.1	2	5	270	0.00	29.682 
11:25	80.5	80.5	85.3	80	73.7	1	4	270	0.00	29.682 
11:30	81.1	81.1	85.9	76	72.8	2	6	270	0.00	29.675 
11:35	81.4	81.4	86.3	75	72.7	3	7	270	0.00	29.675 
11:40	82.0	82.0	87.3	74	72.9	3	6	270	0.00	29.675 
11:45	82.4	82.4	87.9	73	72.9	1	4	315	0.00	29.680 
11:50	82.6	82.6	88.4	73	73.0	2	5	270	0.00	29.680 
11:55	82.8	82.8	88.5	72	72.8	2	5	292	0.00	29.680 
12:00	82.6	82.6	88.1	72	72.6	2	4	292	0.00	29.679 
12:05	83.0	83.0	88.9	72	73.0	2	4	292	0.00	29.679 
12:10	84.0	84.0	91.1	72	74.0	1	3	292	0.00	29.679 
12:15	83.6	83.6	89.3	69	72.3	3	9	292	0.00	29.683 
12:20	83.2	83.2	89.1	71	72.8	2	5	315	0.00	29.683 
12:25	83.0	83.0	88.4	70	72.2	2	5	292	0.00	29.683 
12:30	83.0	83.0	88.4	70	72.2	2	6	292	0.00	29.686 
12:35	83.6	83.6	89.0	68	71.9	2	4	315	0.00	29.686 
12:40	84.0	84.0	89.2	66	71.4	3	7	292	0.00	29.686 
12:45	84.3	84.3	90.1	67	72.1	2	7	292	0.00	29.685 
12:50	84.5	84.5	89.9	65	71.4	2	6	292	0.00	29.685 
12:55	84.0	84.0	89.5	67	71.8	1	5	315	0.00	29.685 
13:00	83.6	83.6	88.7	67	71.5	2	5	270	0.00	29.690 
13:05	83.0	83.0	88.1	69	71.8	1	4	270	0.00	29.690 
13:10	82.8	82.8	88.2	71	72.4	1	3	0	0.00	29.690 
13:15	82.8	82.8	88.0	70	72.0	1	2	292	0.00	29.696 
13:20	83.2	83.2	88.8	70	72.4	0	2	292	0.00	29.696 
13:25	83.4	83.4	88.9	69	72.1	2	6	292	0.00	29.696 
13:30	84.0	84.0	89.8	68	72.3	2	5	292	0.00	29.699 
13:35	83.6	83.6	88.2	65	70.6	1	5	270	0.00	29.699 
13:40	83.6	83.6	89.0	68	71.9	1	4	270	0.00	29.699 
13:45	84.3	84.3	90.1	67	72.1	1	5	315	0.00	29.698 
13:50	85.1	85.1	90.8	64	71.5	2	4	292	0.00	29.698 
13:55	84.9	84.9	89.1	60	69.4	2	6	292	0.00	29.698 
14:00	85.3	85.3	90.1	61	70.3	2	6	292	0.00	29.700 
14:05	85.7	85.7	91.2	62	71.1	1	3	292	0.00	29.700 
14:10	85.5	85.5	90.8	62	71.0	1	5	292	0.00	29.700 
14:15	85.9	85.9	91.6	62	71.3	1	3	292	0.00	29.706 
14:20	85.7	85.7	90.5	60	70.2	2	5	292	0.00	29.706 
14:25	85.5	85.5	90.8	62	71.0	1	3	315	0.00	29.706 
14:30	84.9	84.9	90.4	64	71.3	1	3	338	0.00	29.711 
14:35	85.5	85.5	90.5	61	70.5	1	3	338	0.00	29.711 
14:40	85.1	85.1	89.8	61	70.1	2	5	315	0.00	29.711 
14:45	84.3	84.3	89.2	64	70.8	1	3	292	0.00	29.707 
14:50	84.5	84.5	89.9	65	71.4	1	3	315	0.00	29.707 
14:55	85.1	85.1	90.1	62	70.6	1	2	315	0.00	29.707 
15:00	85.7	85.7	91.6	63	71.6	2	6	292	0.00	29.703 
15:05	86.1	86.1	91.3	60	70.6	1	3	292	0.00	29.703 
15:10	85.7	85.7	91.2	62	71.1	1	5	112	0.00	29.703 
15:15	85.7	85.7	90.5	60	70.2	1	3	0	0.00	29.705 
15:20	85.7	85.7	90.5	60	70.2	1	4	0	0.00	29.705 
15:25	85.7	85.7	90.9	61	70.7	1	2	315	0.00	29.705 
15:30	85.1	85.1	89.8	61	70.1	1	3	315	0.00	29.707 
15:35	85.5	85.5	89.5	58	69.0	3	6	315	0.00	29.707 
15:40	85.5	85.5	89.5	58	69.0	3	6	315	0.00	29.707 
15:45	84.9	84.9	89.1	60	69.4	2	4	315	0.00	29.713 
15:50	85.5	85.5	89.2	57	68.5	2	6	292	0.00	29.713 
15:55	85.9	85.9	89.2	55	67.8	3	5	292	0.00	29.713 
16:00	86.3	86.3	90.2	56	68.7	1	5	270	0.00	29.714 
16:05	86.7	86.7	89.9	53	67.5	2	4	315	0.00	29.714 
16:10	85.9	85.9	89.2	55	67.8	2	4	292	0.00	29.714 
16:15	85.3	85.3	88.2	55	67.3	1	4	315	0.00	29.719 
16:20	84.9	84.9	88.2	57	67.9	1	3	315	0.00	29.719 
16:25	85.1	85.1	88.2	56	67.6	1	4	315	0.00	29.719 
16:30	85.3	85.3	88.0	54	66.7	1	3	315	0.00	29.715 
16:35	85.3	85.3	88.2	55	67.3	1	4	292	0.00	29.715 
16:40	85.7	85.7	89.2	56	68.2	1	4	315	0.00	29.715 
16:45	86.3	86.3	89.6	54	67.7	1	4	315	0.00	29.718 
16:50	86.5	86.5	89.9	54	67.8	1	4	292	0.00	29.718 
16:55	86.7	86.7	89.9	53	67.5	1	4	292	0.00	29.718 
17:00	86.5	86.5	89.9	54	67.8	1	5	270	0.00	29.718 
17:05	85.9	85.9	89.2	55	67.8	1	5	270	0.00	29.718 
17:10	84.9	84.9	88.5	58	68.4	1	5	292	0.00	29.718 
17:15	84.1	84.1	87.7	60	68.7	1	3	270	0.00	29.721 
17:20	84.3	84.3	88.0	60	68.9	1	2	270	0.00	29.721 
17:25	84.9	84.9	88.5	58	68.4	1	3	292	0.00	29.721 
17:30	85.5	85.5	89.2	57	68.5	2	5	315	0.00	29.722 
17:35	85.9	85.9	89.6	56	68.3	2	8	315	0.00	29.722 
17:40	86.1	86.1	89.9	56	68.5	1	4	315	0.00	29.722 
17:45	85.9	85.9	89.2	55	67.8	1	4	270	0.00	29.726 
17:50	85.5	85.5	88.3	54	66.9	2	4	292	0.00	29.726 
17:55	85.5	85.5	88.6	55	67.5	3	7	270	0.00	29.726 
18:00	85.5	85.5	88.6	55	67.5	2	7	270	0.00	29.733 
18:05	85.1	85.1	87.9	55	67.1	2	5	292	0.00	29.733 
18:10	84.7	84.7	87.3	55	66.7	2	5	292	0.00	29.733 
18:15	84.1	84.1	86.7	56	66.7	0	2	315	0.00	29.736 
18:20	84.5	84.5	87.0	55	66.5	2	4	315	0.00	29.736 
18:25	84.9	84.9	87.3	54	66.4	2	6	292	0.00	29.736 
18:30	84.9	84.9	87.3	54	66.4	2	4	292	0.00	29.738 
18:35	84.7	84.7	87.6	56	67.2	1	4	292	0.00	29.738 
18:40	84.7	84.7	87.3	55	66.7	1	3	292	0.00	29.738 
18:45	84.7	84.7	86.8	53	65.6	1	6	22	0.00	29.742 
18:50	84.5	84.5	87.0	55	66.5	1	5	315	0.00	29.742 
18:55	84.0	84.0	86.3	55	66.1	1	5	270	0.00	29.742 
19:00	83.8	83.8	86.2	56	66.4	1	3	292	0.00	29.749 
19:05	83.8	83.8	86.2	56	66.4	1	3	292	0.00	29.749 
19:10	83.8	83.8	86.4	57	66.9	1	5	292	0.00	29.749 
19:15	83.8	83.8	86.4	57	66.9	1	4	292	0.00	29.749 
19:20	83.8	83.8	86.4	57	66.9	1	3	292	0.00	29.749 
19:25	83.6	83.6	85.7	55	65.7	1	4	315	0.00	29.749 
19:30	83.2	83.2	85.3	56	65.8	1	5	315	0.00	29.752 
19:35	83.0	83.0	85.5	58	66.7	0	3	270	0.00	29.752 
19:40	82.8	82.8	85.2	58	66.5	0	2	270	0.00	29.752 
19:45	82.8	82.8	85.6	60	67.5	0	1	270	0.00	29.754 
19:50	82.4	82.4	85.0	60	67.1	0	2	270	0.00	29.754 
19:55	82.2	82.2	84.9	61	67.4	1	4	270	0.00	29.754 
20:00	82.0	82.0	84.8	62	67.7	0	2	270	0.00	29.761 
20:05	81.8	81.8	84.7	63	67.9	0	3	270	0.00	29.761 
20:10	81.8	81.8	84.9	64	68.4	0	2	270	0.00	29.761 
20:15	81.8	81.8	84.9	64	68.4	1	4	270	0.00	29.763 
20:20	81.6	81.6	84.6	64	68.2	1	4	315	0.00	29.763 
20:25	81.4	81.4	84.1	63	67.6	1	4	315	0.00	29.763 
20:30	81.1	81.1	83.8	64	67.7	1	4	315	0.00	29.767 
20:35	80.9	80.9	83.5	64	67.6	2	4	270	0.00	29.767 
20:40	80.7	80.7	83.4	65	67.8	2	5	292	0.00	29.767 
20:45	80.3	80.3	82.9	66	67.9	1	3	292	0.00	29.771 
20:50	80.1	80.1	82.6	66	67.7	0	2	292	0.00	29.771 
20:55	79.9	79.9	82.5	67	67.9	0	3	292	0.00	29.771 
21:00	79.8	79.8	82.4	68	68.3	0	2	292	0.00	29.771 
21:05	79.6	79.6	82.1	68	68.1	1	4	292	0.00	29.771 
21:10	79.4	79.4	81.7	67	67.5	2	4	315	0.00	29.771 
21:15	79.2	79.2	81.5	67	67.3	1	3	315	0.00	29.776 
21:20	79.0	79.0	81.1	66	66.6	1	4	315	0.00	29.776 
21:25	78.6	78.6	80.6	65	65.8	2	4	315	0.00	29.776 
21:30	78.3	78.3	80.2	64	65.1	2	6	292	0.00	29.782 
21:35	77.9	77.9	79.7	63	64.3	1	3	315	0.00	29.782 
21:40	77.6	77.6	79.4	62	63.5	2	4	292	0.00	29.782 
21:45	77.2	77.2	79.0	62	63.2	1	3	292	0.00	29.788 
21:50	76.8	76.8	78.6	63	63.2	0	2	292	0.00	29.788 
21:55	76.5	76.5	78.3	63	62.9	2	4	292	0.00	29.788 
22:00	76.3	76.3	78.2	64	63.2	1	4	292	0.00	29.790 
22:05	76.0	76.0	77.9	65	63.4	0	1	315	0.00	29.790 
22:10	75.8	75.8	77.7	65	63.2	1	3	315	0.00	29.790 
22:15	75.4	75.4	77.3	66	63.2	1	3	315	0.00	29.797 
22:20	75.3	75.3	77.2	67	63.6	0	3	315	0.00	29.797 
22:25	75.1	75.1	77.0	67	63.4	1	3	315	0.00	29.797 
22:30	74.9	74.9	74.9	68	63.6	0	2	315	0.00	29.800 
22:35	74.7	74.7	74.7	69	63.8	0	2	315	0.00	29.800 
22:40	74.6	74.6	74.6	70	64.2	0	2	315	0.00	29.800 
22:45	74.4	74.4	74.4	70	64.0	0	1	315	0.00	29.803 
22:50	74.2	74.2	74.2	71	64.2	0	2	315	0.00	29.803 
22:55	74.0	74.0	74.0	71	64.0	0	1	315	0.00	29.803 
23:00	73.9	73.9	73.9	72	64.3	0	2	315	0.00	29.806 
23:05	73.7	73.7	73.7	73	64.5	0	2	315	0.00	29.806 
23:10	73.7	73.7	73.7	73	64.5	0	2	315	0.00	29.806 
23:15	73.5	73.5	73.5	74	64.7	0	3	315	0.00	29.805 
23:20	73.3	73.3	73.3	74	64.5	0	2	315	0.00	29.805 
23:25	73.2	73.2	73.2	75	64.8	0	2	315	0.00	29.805 
23:30	73.0	73.0	73.0	76	65.0	0	1	315	0.00	29.802 
23:35	73.0	73.0	73.0	76	65.0	0	1	315	0.00	29.802 
23:40	72.8	72.8	72.8	77	65.2	0	1	315	0.00	29.802 
23:45	72.8	72.8	72.8	78	65.5	0	1	315	0.00	29.805 
23:50	72.7	72.7	72.7	78	65.4	0	1	315	0.00	29.805 
23:55	72.5	72.5	72.5	79	65.6	0	1	315	0.00	29.805 

CoCoRaHS
IN-AL-39
A2 Web Hosting
Creative Commons License
GoDaddy
search engine by freefind advanced

loaded 2018-11-17 06:06:25 • last modified 2010-11-18 10:43:29
Privacy PolicyDisclaimer
• wx.awcolley.com is powered by PmWiki v.2002016 •
• all content (unless otherwise noted) © 2018 A W Colley